createdAt,value
2023-01-25T00:01:20.047Z,1026.6
2023-01-25T00:03:20.110Z,1026.7
2023-01-25T00:05:19.991Z,1026.7
2023-01-25T00:07:20.060Z,1026.6
2023-01-25T00:09:20.013Z,1026.7
2023-01-25T00:11:20.148Z,1026.7
2023-01-25T00:13:20.194Z,1026.7
2023-01-25T00:15:19.980Z,1026.7
2023-01-25T00:17:20.001Z,1026.6
2023-01-25T00:19:19.999Z,1026.6
2023-01-25T00:21:20.021Z,1026.6
2023-01-25T00:23:20.031Z,1026.5
2023-01-25T00:25:20.008Z,1026.5
2023-01-25T00:27:20.006Z,1026.5
2023-01-25T00:29:19.988Z,1026.5
2023-01-25T00:31:20.076Z,1026.6
2023-01-25T00:33:20.045Z,1026.6
2023-01-25T00:35:20.047Z,1026.7
2023-01-25T00:37:19.990Z,1026.7
2023-01-25T00:39:19.974Z,1026.7
2023-01-25T00:41:20.136Z,1026.9
2023-01-25T00:43:20.099Z,1026.9
2023-01-25T00:45:19.961Z,1026.9
2023-01-25T00:47:19.994Z,1027
2023-01-25T00:49:19.976Z,1027
2023-01-25T00:51:19.954Z,1027.1
2023-01-25T00:53:20.002Z,1027.1
2023-01-25T00:55:19.927Z,1027.2
2023-01-25T00:57:19.939Z,1027.3
2023-01-25T00:59:20.137Z,1027.4
2023-01-25T01:01:20.032Z,1027.4
2023-01-25T01:03:19.944Z,1027.4
2023-01-25T01:05:19.938Z,1027.4
2023-01-25T01:07:21.137Z,1027.5
2023-01-25T01:09:19.913Z,1027.4
2023-01-25T01:11:19.941Z,1027.4
2023-01-25T01:13:19.950Z,1027.5
2023-01-25T01:15:20.007Z,1027.5
2023-01-25T01:17:19.953Z,1027.6
2023-01-25T01:19:19.938Z,1027.6
2023-01-25T01:21:19.903Z,1027.7
2023-01-25T01:23:20.062Z,1027.8
2023-01-25T01:25:19.914Z,1027.8
2023-01-25T01:27:19.900Z,1027.9
2023-01-25T01:29:19.905Z,1027.9
2023-01-25T01:31:19.998Z,1028
2023-01-25T01:33:20.101Z,1028
2023-01-25T01:35:19.904Z,1028
2023-01-25T01:37:19.919Z,1028.1
2023-01-25T01:39:20.135Z,1028.1
2023-01-25T01:41:19.882Z,1028.1
2023-01-25T01:43:19.916Z,1028.1
2023-01-25T01:45:19.947Z,1028.1
2023-01-25T01:47:19.910Z,1028.2
2023-01-25T01:49:19.890Z,1028.2
2023-01-25T01:51:20.019Z,1028.2
2023-01-25T01:53:19.986Z,1028.2
2023-01-25T01:55:19.908Z,1028.2
2023-01-25T01:57:19.971Z,1028.2
2023-01-25T01:59:19.851Z,1028.3
2023-01-25T02:01:20.043Z,1028.3
2023-01-25T02:03:19.882Z,1028.3
2023-01-25T02:05:19.863Z,1028.3
2023-01-25T02:07:19.871Z,1028.3
2023-01-25T02:09:19.900Z,1028.2
2023-01-25T02:11:19.895Z,1028.1
2023-01-25T02:13:19.826Z,1028.1
2023-01-25T02:15:19.881Z,1028.1
2023-01-25T02:17:19.888Z,1028.2
2023-01-25T02:19:20.003Z,1028.2
2023-01-25T02:21:19.986Z,1028.2
2023-01-25T02:23:19.822Z,1028.2
2023-01-25T02:25:19.832Z,1028.2
2023-01-25T02:27:19.909Z,1028.2
2023-01-25T02:29:19.839Z,1028.2
2023-01-25T02:31:20.068Z,1028.2
2023-01-25T02:33:19.856Z,1028.2
2023-01-25T02:35:19.816Z,1028.2
2023-01-25T02:37:19.933Z,1028.1
2023-01-25T02:39:20.564Z,1028.1
2023-01-25T02:41:19.927Z,1028.1
2023-01-25T02:43:19.793Z,1028.1
2023-01-25T02:45:19.940Z,1028.1
2023-01-25T02:47:19.857Z,1028
2023-01-25T02:49:19.892Z,1028
2023-01-25T02:51:19.823Z,1028
2023-01-25T02:53:19.898Z,1028
2023-01-25T02:55:19.783Z,1027.9
2023-01-25T02:57:21.686Z,1027.8
2023-01-25T02:59:19.824Z,1027.7
2023-01-25T03:01:20.073Z,1027.7
2023-01-25T03:03:19.772Z,1027.7
2023-01-25T03:05:19.781Z,1027.7
2023-01-25T03:07:19.969Z,1027.7
2023-01-25T03:09:19.813Z,1027.7
2023-01-25T03:11:19.848Z,1027.7
2023-01-25T03:13:19.770Z,1027.7
2023-01-25T03:15:19.787Z,1027.7
2023-01-25T03:17:19.811Z,1027.6
2023-01-25T03:19:19.861Z,1027.6
2023-01-25T03:21:19.770Z,1027.6
2023-01-25T03:23:19.750Z,1027.6
2023-01-25T03:25:19.739Z,1027.5
2023-01-25T03:27:19.759Z,1027.5
2023-01-25T03:29:19.796Z,1027.4
2023-01-25T03:31:20.028Z,1027.3
2023-01-25T03:33:19.934Z,1027.3
2023-01-25T03:35:19.793Z,1027.3
2023-01-25T03:37:19.747Z,1027.3
2023-01-25T03:39:19.752Z,1027.1
2023-01-25T03:41:19.791Z,1027.1
2023-01-25T03:43:19.733Z,1027.2
2023-01-25T03:45:19.741Z,1027.1
2023-01-25T03:47:19.864Z,1027
2023-01-25T03:49:19.816Z,1027
2023-01-25T03:51:19.891Z,1027
2023-01-25T03:53:19.732Z,1026.9
2023-01-25T03:55:19.900Z,1026.8
2023-01-25T03:57:19.833Z,1026.8
2023-01-25T03:59:19.724Z,1026.6
2023-01-25T04:01:19.792Z,1026.6
2023-01-25T04:03:19.720Z,1026.6
2023-01-25T04:05:19.687Z,1026.6
2023-01-25T04:07:19.708Z,1026.6
2023-01-25T04:09:19.734Z,1026.6
2023-01-25T04:11:19.687Z,1026.5
2023-01-25T04:13:19.859Z,1026.5
2023-01-25T04:15:19.697Z,1026.6
2023-01-25T04:17:19.667Z,1026.5
2023-01-25T04:19:19.858Z,1026.4
2023-01-25T04:21:19.836Z,1026.5
2023-01-25T04:23:19.709Z,1026.5
2023-01-25T04:25:19.714Z,1026.6
2023-01-25T04:27:19.682Z,1026.5
2023-01-25T04:29:26.138Z,1026.5
2023-01-25T04:31:19.766Z,1026.5
2023-01-25T04:33:19.677Z,1026.4
2023-01-25T04:35:19.651Z,1026.4
2023-01-25T04:37:19.716Z,1026.3
2023-01-25T04:39:19.657Z,1026.4
2023-01-25T04:41:19.687Z,1026.4
2023-01-25T04:43:19.723Z,1026.5
2023-01-25T04:45:19.737Z,1026.5
2023-01-25T04:47:19.657Z,1026.5
2023-01-25T04:49:19.711Z,1026.7
2023-01-25T04:51:19.736Z,1026.8
2023-01-25T04:53:19.692Z,1026.9
2023-01-25T04:55:19.699Z,1027
2023-01-25T04:57:19.632Z,1027
2023-01-25T04:59:19.630Z,1026.9
2023-01-25T05:01:19.749Z,1026.8
2023-01-25T05:03:19.668Z,1026.7
2023-01-25T05:05:19.662Z,1026.7
2023-01-25T05:07:19.668Z,1026.7
2023-01-25T05:09:19.630Z,1026.7
2023-01-25T05:11:19.638Z,1026.6
2023-01-25T05:13:19.618Z,1026.6
2023-01-25T05:15:19.657Z,1026.6
2023-01-25T05:17:19.642Z,1026.7
2023-01-25T05:19:19.613Z,1026.7
2023-01-25T05:21:19.596Z,1026.8
2023-01-25T05:23:19.619Z,1026.7
2023-01-25T05:25:20.024Z,1026.7
2023-01-25T05:27:19.633Z,1026.7
2023-01-25T05:29:19.590Z,1026.7
2023-01-25T05:31:19.695Z,1026.7
2023-01-25T05:33:19.791Z,1026.7
2023-01-25T05:35:19.647Z,1026.8
2023-01-25T05:37:19.611Z,1026.8
2023-01-25T05:39:19.640Z,1026.9
2023-01-25T05:41:19.584Z,1026.9
2023-01-25T05:43:19.720Z,1026.9
2023-01-25T05:45:19.637Z,1026.8
2023-01-25T05:47:19.613Z,1026.7
2023-01-25T05:49:19.664Z,1026.8
2023-01-25T05:51:19.596Z,1026.9
2023-01-25T05:53:20.632Z,1026.9
2023-01-25T05:55:19.580Z,1026.9
2023-01-25T05:57:19.640Z,1026.9
2023-01-25T05:59:19.570Z,1027
2023-01-25T06:01:19.719Z,1027
2023-01-25T06:03:19.604Z,1027.1
2023-01-25T06:05:19.566Z,1027.1
2023-01-25T06:07:19.571Z,1026.9
2023-01-25T06:09:19.562Z,1026.7
2023-01-25T06:11:19.576Z,1026.6
2023-01-25T06:13:19.531Z,1026.5
2023-01-25T06:15:19.547Z,1026.5
2023-01-25T06:17:19.597Z,1026.5
2023-01-25T06:19:19.580Z,1026.5
2023-01-25T06:21:19.648Z,1026.4
2023-01-25T06:23:19.520Z,1026.4
2023-01-25T06:25:19.563Z,1026.5
2023-01-25T06:27:19.540Z,1026.4
2023-01-25T06:29:19.509Z,1026.4
2023-01-25T06:31:19.568Z,1026.3
2023-01-25T06:33:19.525Z,1026.3
2023-01-25T06:35:19.550Z,1026.3
2023-01-25T06:37:19.492Z,1026.2
2023-01-25T06:39:19.508Z,1026.1
2023-01-25T06:41:19.520Z,1026
2023-01-25T06:43:19.473Z,1026
2023-01-25T06:45:19.510Z,1026
2023-01-25T06:47:19.507Z,1025.9
2023-01-25T06:49:19.562Z,1025.9
2023-01-25T06:51:19.500Z,1025.8
2023-01-25T06:53:19.499Z,1025.7
2023-01-25T06:55:19.488Z,1025.7
2023-01-25T06:57:19.477Z,1025.7
2023-01-25T06:59:19.544Z,1025.9
2023-01-25T07:01:20.912Z,1025.9
2023-01-25T07:03:19.467Z,1025.8
2023-01-25T07:05:19.450Z,1025.9
2023-01-25T07:07:19.467Z,1026
2023-01-25T07:09:19.454Z,1026
2023-01-25T07:11:19.454Z,1026
2023-01-25T07:13:19.433Z,1026
2023-01-25T07:15:19.432Z,1026.1
2023-01-25T07:17:19.449Z,1026.1
2023-01-25T07:19:19.443Z,1026
2023-01-25T07:21:19.438Z,1026.1
2023-01-25T07:23:19.436Z,1026.1
2023-01-25T07:25:19.422Z,1026.2
2023-01-25T07:27:19.479Z,1026.2
2023-01-25T07:29:19.447Z,1026.2
2023-01-25T07:31:19.442Z,1026.2
2023-01-25T07:33:19.550Z,1026.2
2023-01-25T07:35:19.401Z,1026.3
2023-01-25T07:37:19.429Z,1026.5
2023-01-25T07:39:19.401Z,1026.6
2023-01-25T07:41:19.415Z,1026.5
2023-01-25T07:43:19.406Z,1026.4
2023-01-25T07:45:19.401Z,1026.3
2023-01-25T07:47:19.398Z,1026.3
2023-01-25T07:49:19.431Z,1026.3
2023-01-25T07:51:19.421Z,1026.4
2023-01-25T07:53:19.429Z,1026.4
2023-01-25T07:55:19.393Z,1026.4
2023-01-25T07:57:19.418Z,1026.4
2023-01-25T07:59:19.401Z,1026.4
2023-01-25T08:01:19.389Z,1026.5
2023-01-25T08:03:19.439Z,1026.6
2023-01-25T08:05:19.458Z,1026.6
2023-01-25T08:07:19.432Z,1026.7
2023-01-25T08:09:19.401Z,1026.5
2023-01-25T08:11:19.405Z,1026.5
2023-01-25T08:13:19.363Z,1026.4
2023-01-25T08:15:19.412Z,1026.4
2023-01-25T08:17:19.350Z,1026.4
2023-01-25T08:19:19.359Z,1026.4
2023-01-25T08:21:19.363Z,1026.4
2023-01-25T08:23:19.357Z,1026.4
2023-01-25T08:25:19.379Z,1026.4
2023-01-25T08:27:19.344Z,1026.3
2023-01-25T08:29:19.372Z,1026.3
2023-01-25T08:31:19.568Z,1026.2
2023-01-25T08:33:19.361Z,1026
2023-01-25T08:35:19.387Z,1026
2023-01-25T08:37:19.465Z,1026.1
2023-01-25T08:39:19.335Z,1026.1
2023-01-25T08:41:19.439Z,1026.1
2023-01-25T08:43:19.342Z,1026.1
2023-01-25T08:45:19.364Z,1026
2023-01-25T08:47:19.319Z,1026
2023-01-25T08:49:19.320Z,1026
2023-01-25T08:51:19.412Z,1026
2023-01-25T08:53:19.318Z,1025.9
2023-01-25T08:55:19.333Z,1025.9
2023-01-25T08:57:19.321Z,1025.9
2023-01-25T08:59:20.383Z,1026
2023-01-25T09:01:19.330Z,1026
2023-01-25T09:03:19.327Z,1026.1
2023-01-25T09:05:19.301Z,1026.2
2023-01-25T09:07:19.315Z,1026.2
2023-01-25T09:09:19.324Z,1026.2
2023-01-25T09:11:19.344Z,1026.2
2023-01-25T09:13:19.289Z,1026.3
2023-01-25T09:15:19.312Z,1026.2
2023-01-25T09:17:19.271Z,1026.2
2023-01-25T09:19:19.284Z,1026.1
2023-01-25T09:21:19.268Z,1026
2023-01-25T09:23:19.268Z,1026
2023-01-25T09:25:19.257Z,1026.2
2023-01-25T09:27:19.363Z,1026.2
2023-01-25T09:29:19.264Z,1026.2
2023-01-25T09:31:22.525Z,1026.2
2023-01-25T09:33:19.276Z,1026.3
2023-01-25T09:35:19.262Z,1026.5
2023-01-25T09:37:19.247Z,1026.4
2023-01-25T09:39:19.269Z,1026.5
2023-01-25T09:41:19.279Z,1026.5
2023-01-25T09:43:19.270Z,1026.5
2023-01-25T09:45:19.237Z,1026.5
2023-01-25T09:47:19.267Z,1026.5
2023-01-25T09:49:19.252Z,1026.6
2023-01-25T09:51:19.227Z,1026.6
2023-01-25T09:53:19.335Z,1026.6
2023-01-25T09:55:19.266Z,1026.6
2023-01-25T09:57:19.242Z,1026.5
2023-01-25T09:59:19.225Z,1026.5
2023-01-25T10:01:21.589Z,1026.4
2023-01-25T10:03:19.238Z,1026.4
2023-01-25T10:05:19.243Z,1026.3
2023-01-25T10:07:19.241Z,1026.2
2023-01-25T10:09:19.220Z,1026.2
2023-01-25T10:11:19.194Z,1026.1
2023-01-25T10:13:19.240Z,1026.1
2023-01-25T10:15:19.237Z,1026
2023-01-25T10:17:19.211Z,1025.9
2023-01-25T10:19:19.203Z,1025.8
2023-01-25T10:21:19.571Z,1025.7
2023-01-25T10:23:19.226Z,1025.7
2023-01-25T10:25:19.176Z,1025.6
2023-01-25T10:27:19.216Z,1025.5
2023-01-25T10:29:19.285Z,1025.4
2023-01-25T10:31:19.274Z,1025.4
2023-01-25T10:33:19.201Z,1025.4
2023-01-25T10:35:29.343Z,1025.3
2023-01-25T10:37:19.179Z,1025.3
2023-01-25T10:39:19.218Z,1025.4
2023-01-25T10:41:19.205Z,1025.4
2023-01-25T10:43:19.174Z,1025.4
2023-01-25T10:45:19.181Z,1025.3
2023-01-25T10:47:19.237Z,1025.3
2023-01-25T10:49:19.160Z,1025.3
2023-01-25T10:51:19.190Z,1025.4
2023-01-25T10:53:19.160Z,1025.3
2023-01-25T10:55:19.164Z,1025.3
2023-01-25T10:57:19.161Z,1025.2
2023-01-25T10:59:19.180Z,1025.1
2023-01-25T11:01:19.180Z,1025.1
2023-01-25T11:03:19.141Z,1025.1
2023-01-25T11:05:19.144Z,1025.2
2023-01-25T11:07:19.186Z,1025.2
2023-01-25T11:09:19.162Z,1025
2023-01-25T11:11:19.135Z,1025
2023-01-25T11:13:19.122Z,1025.1
2023-01-25T11:15:19.112Z,1025
2023-01-25T11:17:19.119Z,1025
2023-01-25T11:19:19.202Z,1025
2023-01-25T11:21:19.131Z,1025
2023-01-25T11:23:19.134Z,1025
2023-01-25T11:25:19.251Z,1024.9
2023-01-25T11:27:19.100Z,1024.8
2023-01-25T11:29:19.123Z,1024.6
2023-01-25T11:31:19.323Z,1024.6
2023-01-25T11:33:19.129Z,1024.6
2023-01-25T11:35:19.111Z,1024.6
2023-01-25T11:37:19.128Z,1024.6
2023-01-25T11:39:19.097Z,1024.6
2023-01-25T11:41:19.097Z,1024.5
2023-01-25T11:43:19.148Z,1024.6
2023-01-25T11:45:19.104Z,1024.5
2023-01-25T11:47:19.092Z,1024.5
2023-01-25T11:49:19.113Z,1024.5
2023-01-25T11:51:19.109Z,1024.4
2023-01-25T11:53:19.103Z,1024.4
2023-01-25T11:55:19.125Z,1024.4
2023-01-25T11:57:19.093Z,1024.4
2023-01-25T11:59:19.103Z,1024.4
2023-01-25T12:01:19.066Z,1024.4
2023-01-25T12:03:19.107Z,1024.4
2023-01-25T12:05:21.707Z,1024.5
2023-01-25T12:07:19.082Z,1024.5
2023-01-25T12:09:19.107Z,1024.5
2023-01-25T12:11:19.049Z,1024.4
2023-01-25T12:13:19.052Z,1024.4
2023-01-25T12:15:19.052Z,1024.5
2023-01-25T12:17:19.086Z,1024.6
2023-01-25T12:19:19.060Z,1024.6
2023-01-25T12:21:30.137Z,1024.4
2023-01-25T12:23:19.062Z,1024.2
2023-01-25T12:25:19.042Z,1024.1
2023-01-25T12:27:19.045Z,1024
2023-01-25T12:29:19.033Z,1023.8
2023-01-25T12:31:19.158Z,1023.7
2023-01-25T12:33:19.012Z,1023.7
2023-01-25T12:35:19.060Z,1023.8
2023-01-25T12:37:19.090Z,1024
2023-01-25T12:39:19.281Z,1024.1
2023-01-25T12:41:19.049Z,1024.1
2023-01-25T12:43:19.021Z,1024.1
2023-01-25T12:45:19.024Z,1024.2
2023-01-25T12:47:19.020Z,1024.1
2023-01-25T12:49:19.004Z,1024
2023-01-25T12:51:19.015Z,1023.9
2023-01-25T12:53:19.142Z,1023.9
2023-01-25T12:55:19.170Z,1023.8
2023-01-25T12:57:18.995Z,1023.8
2023-01-25T12:59:19.015Z,1023.6
2023-01-25T13:01:19.104Z,1023.5
2023-01-25T13:03:19.002Z,1023.6
2023-01-25T13:05:18.973Z,1023.5
2023-01-25T13:07:19.025Z,1023.5
2023-01-25T13:09:19.003Z,1023.6
2023-01-25T13:11:18.969Z,1023.6
2023-01-25T13:13:19.025Z,1023.6
2023-01-25T13:15:18.965Z,1023.6
2023-01-25T13:17:18.991Z,1023.4
2023-01-25T13:19:19.017Z,1023.5
2023-01-25T13:21:18.991Z,1023.4
2023-01-25T13:23:19.029Z,1023.5
2023-01-25T13:25:18.992Z,1023.4
2023-01-25T13:27:19.020Z,1023.3
2023-01-25T13:29:18.982Z,1023.3
2023-01-25T13:31:19.038Z,1023.2
2023-01-25T13:33:18.941Z,1023.2
2023-01-25T13:35:18.937Z,1023.3
2023-01-25T13:37:18.954Z,1023.4
2023-01-25T13:39:18.937Z,1023.1
2023-01-25T13:41:19.021Z,1023.1
2023-01-25T13:43:18.958Z,1023.4
2023-01-25T13:45:18.955Z,1023.3
2023-01-25T13:47:18.922Z,1023.1
2023-01-25T13:49:18.931Z,1023.2
2023-01-25T13:51:18.896Z,1023.3
2023-01-25T13:53:18.932Z,1023.2
2023-01-25T13:55:18.972Z,1023.1
2023-01-25T13:57:18.977Z,1023.1
2023-01-25T13:59:18.949Z,1023.1
2023-01-25T14:01:19.016Z,1023.1
2023-01-25T14:03:18.912Z,1022.9
2023-01-25T14:05:18.939Z,1022.8
2023-01-25T14:07:18.907Z,1022.7
2023-01-25T14:09:18.930Z,1022.7
2023-01-25T14:11:18.901Z,1022.8
2023-01-25T14:13:18.910Z,1022.7
2023-01-25T14:15:18.923Z,1022.7
2023-01-25T14:17:18.944Z,1022.7
2023-01-25T14:19:18.887Z,1022.8
2023-01-25T14:21:18.880Z,1022.8
2023-01-25T14:23:18.880Z,1022.7
2023-01-25T14:25:18.939Z,1022.7
2023-01-25T14:27:18.934Z,1022.7
2023-01-25T14:29:31.670Z,1022.7
2023-01-25T14:31:20.297Z,1022.7
2023-01-25T14:33:18.871Z,1022.7
2023-01-25T14:35:18.905Z,1022.6
2023-01-25T14:37:18.873Z,1022.6
2023-01-25T14:39:18.887Z,1022.5
2023-01-25T14:41:18.880Z,1022.5
2023-01-25T14:43:18.868Z,1022.5
2023-01-25T14:45:19.359Z,1022.6
2023-01-25T14:47:18.856Z,1022.5
2023-01-25T14:49:18.849Z,1022.3
2023-01-25T14:51:18.854Z,1022.1
2023-01-25T14:53:18.840Z,1021.9
2023-01-25T14:55:18.869Z,1021.9
2023-01-25T14:57:19.114Z,1021.7
2023-01-25T14:59:19.277Z,1021.6
2023-01-25T15:01:19.108Z,1021.7
2023-01-25T15:03:18.919Z,1021.6
2023-01-25T15:05:19.016Z,1021.5
2023-01-25T15:07:18.941Z,1021.5
2023-01-25T15:09:18.833Z,1021.5
2023-01-25T15:11:18.867Z,1021.3
2023-01-25T15:13:18.880Z,1021.4
2023-01-25T15:15:18.846Z,1021.4
2023-01-25T15:17:18.856Z,1021.4
2023-01-25T15:19:18.833Z,1021.3
2023-01-25T15:21:18.921Z,1021.2
2023-01-25T15:23:18.842Z,1021
2023-01-25T15:25:23.821Z,1021.1
2023-01-25T15:27:18.848Z,1021
2023-01-25T15:29:18.825Z,1020.9
2023-01-25T15:31:18.948Z,1020.9
2023-01-25T15:33:18.823Z,1021.1
2023-01-25T15:35:18.962Z,1021.2
2023-01-25T15:37:18.867Z,1021.3
2023-01-25T15:39:18.809Z,1021.3
2023-01-25T15:41:18.812Z,1021.4
2023-01-25T15:43:18.797Z,1021.4
2023-01-25T15:45:18.779Z,1021.4
2023-01-25T15:47:18.859Z,1021.1
2023-01-25T15:49:18.802Z,1020.8
2023-01-25T15:51:18.806Z,1020.7
2023-01-25T15:53:18.792Z,1020.5
2023-01-25T15:55:18.787Z,1020.3
2023-01-25T15:57:18.765Z,1020.3
2023-01-25T15:59:18.797Z,1020.2
2023-01-25T16:01:18.829Z,1020
2023-01-25T16:03:20.110Z,1019.9
2023-01-25T16:05:19.102Z,1019.8
2023-01-25T16:07:18.803Z,1019.9
2023-01-25T16:09:18.834Z,1019.7
2023-01-25T16:11:18.766Z,1019.9
2023-01-25T16:13:18.794Z,1019.9
2023-01-25T16:15:19.192Z,1020.1
2023-01-25T16:17:18.747Z,1020.1
2023-01-25T16:19:18.759Z,1020.1
2023-01-25T16:21:18.727Z,1019.8
2023-01-25T16:23:18.735Z,1019.8
2023-01-25T16:25:18.759Z,1019.9
2023-01-25T16:27:18.720Z,1019.7
2023-01-25T16:29:18.744Z,1019.6
2023-01-25T16:31:31.117Z,1019.4
2023-01-25T16:33:18.767Z,1019.4
2023-01-25T16:35:18.772Z,1019.2
2023-01-25T16:37:18.786Z,1019.2
2023-01-25T16:39:18.844Z,1019.3
2023-01-25T16:41:18.741Z,1019.2
2023-01-25T16:43:18.730Z,1019
2023-01-25T16:45:19.045Z,1018.8
2023-01-25T16:47:18.686Z,1018.4
2023-01-25T16:49:18.756Z,1018.3
2023-01-25T16:51:18.726Z,1018.1
2023-01-25T16:53:18.850Z,1017.9
2023-01-25T16:55:18.719Z,1017.7
2023-01-25T16:57:20.461Z,1017.6
2023-01-25T16:59:18.681Z,1017.6
2023-01-25T17:01:18.806Z,1017.6
2023-01-25T17:03:18.689Z,1017.5
2023-01-25T17:05:18.698Z,1017.4
2023-01-25T17:07:18.737Z,1017.2
2023-01-25T17:09:22.771Z,1017.1
2023-01-25T17:11:18.744Z,1017.2
2023-01-25T17:13:18.811Z,1017.2
2023-01-25T17:15:18.701Z,1017
2023-01-25T17:17:19.966Z,1016.6
2023-01-25T17:19:18.724Z,1016.4
2023-01-25T17:21:18.670Z,1016.5
2023-01-25T17:23:18.676Z,1016.5
2023-01-25T17:25:18.654Z,1016.3
2023-01-25T17:27:18.680Z,1016.3
2023-01-25T17:29:18.704Z,1016.5
2023-01-25T17:31:18.857Z,1016.7
2023-01-25T17:33:18.682Z,1016.8
2023-01-25T17:35:18.697Z,1016.6
2023-01-25T17:37:18.646Z,1016.3
2023-01-25T17:39:18.630Z,1016
2023-01-25T17:41:18.685Z,1015.9
2023-01-25T17:43:18.720Z,1015.9
2023-01-25T17:45:18.724Z,1016
2023-01-25T17:47:18.670Z,1016
2023-01-25T17:49:18.779Z,1015.7
2023-01-25T17:51:18.608Z,1015.7
2023-01-25T17:53:19.069Z,1015.6
2023-01-25T17:55:18.636Z,1015.5
2023-01-25T17:57:18.643Z,1015.4
2023-01-25T17:59:18.684Z,1015.5
2023-01-25T18:01:18.840Z,1015.7
2023-01-25T18:03:18.639Z,1015.7
2023-01-25T18:05:18.651Z,1015.7
2023-01-25T18:07:18.649Z,1015.6
2023-01-25T18:09:18.601Z,1015.5
2023-01-25T18:11:18.634Z,1015.5
2023-01-25T18:13:18.710Z,1015.3
2023-01-25T18:15:18.811Z,1014.9
2023-01-25T18:17:18.688Z,1015.1
2023-01-25T18:19:18.640Z,1015.2
2023-01-25T18:21:18.616Z,1015.1
2023-01-25T18:23:18.637Z,1015.1
2023-01-25T18:25:18.616Z,1015
2023-01-25T18:27:18.580Z,1014.6
2023-01-25T18:29:18.650Z,1014.6
2023-01-25T18:31:18.775Z,1014.7
2023-01-25T18:33:18.650Z,1014.6
2023-01-25T18:35:18.618Z,1014.4
2023-01-25T18:37:18.623Z,1014.2
2023-01-25T18:39:18.575Z,1014.2
2023-01-25T18:41:18.614Z,1014.2
2023-01-25T18:43:18.560Z,1014.3
2023-01-25T18:45:18.577Z,1014.4
2023-01-25T18:47:18.728Z,1014.5
2023-01-25T18:49:20.058Z,1014.2
2023-01-25T18:51:18.549Z,1013.9
2023-01-25T18:53:18.571Z,1013.7
2023-01-25T18:55:18.562Z,1013.9
2023-01-25T18:57:18.586Z,1013.9
2023-01-25T18:59:18.540Z,1014
2023-01-25T19:01:18.602Z,1013.8
2023-01-25T19:03:18.567Z,1013.6
2023-01-25T19:05:18.588Z,1013.3
2023-01-25T19:07:18.545Z,1013.2
2023-01-25T19:09:18.552Z,1013.3
2023-01-25T19:11:18.563Z,1013.5
2023-01-25T19:13:18.638Z,1013.6
2023-01-25T19:15:18.540Z,1013.5
2023-01-25T19:17:18.572Z,1013.3
2023-01-25T19:19:18.654Z,1013.4
2023-01-25T19:21:18.932Z,1013.3
2023-01-25T19:23:18.701Z,1013.3
2023-01-25T19:25:18.548Z,1013.3
2023-01-25T19:27:18.567Z,1013.1
2023-01-25T19:29:18.532Z,1013
2023-01-25T19:31:18.624Z,1012.9
2023-01-25T19:33:18.547Z,1012.9
2023-01-25T19:35:18.522Z,1012.8
2023-01-25T19:37:18.543Z,1012.8
2023-01-25T19:39:18.576Z,1012.9
2023-01-25T19:41:18.501Z,1012.8
2023-01-25T19:43:18.603Z,1012.8
2023-01-25T19:45:18.498Z,1012.9
2023-01-25T19:47:18.606Z,1012.9
2023-01-25T19:49:18.529Z,1012.9
2023-01-25T19:51:18.553Z,1013
2023-01-25T19:53:18.747Z,1013
2023-01-25T19:55:18.493Z,1013
2023-01-25T19:57:18.509Z,1012.9
2023-01-25T19:59:18.513Z,1012.9
2023-01-25T20:01:18.492Z,1012.8
2023-01-25T20:03:18.499Z,1012.7
2023-01-25T20:05:18.477Z,1012.7
2023-01-25T20:07:18.469Z,1012.6
2023-01-25T20:09:18.542Z,1012.7
2023-01-25T20:11:21.500Z,1012.6
2023-01-25T20:13:18.462Z,1012.5
2023-01-25T20:15:18.446Z,1012.4
2023-01-25T20:17:18.745Z,1012.3
2023-01-25T20:19:19.715Z,1012.1
2023-01-25T20:21:18.690Z,1012
2023-01-25T20:23:18.563Z,1012
2023-01-25T20:25:18.543Z,1011.9
2023-01-25T20:27:18.458Z,1011.9
2023-01-25T20:29:18.428Z,1011.8
2023-01-25T20:31:18.587Z,1011.7
2023-01-25T20:33:18.432Z,1011.7
2023-01-25T20:35:18.684Z,1011.8
2023-01-25T20:37:18.431Z,1011.6
2023-01-25T20:39:18.458Z,1011.7
2023-01-25T20:41:18.585Z,1011.6
2023-01-25T20:43:18.426Z,1011.5
2023-01-25T20:45:18.430Z,1011.6
2023-01-25T20:47:18.450Z,1011.4
2023-01-25T20:49:18.436Z,1011.4
2023-01-25T20:51:18.416Z,1011.4
2023-01-25T20:53:18.530Z,1011.3
2023-01-25T20:55:18.416Z,1011.3
2023-01-25T20:57:18.425Z,1011.2
2023-01-25T20:59:18.603Z,1011
2023-01-25T21:01:19.808Z,1011
2023-01-25T21:03:19.655Z,1010.9
2023-01-25T21:05:18.526Z,1010.9
2023-01-25T21:07:18.400Z,1011
2023-01-25T21:09:18.421Z,1011
2023-01-25T21:11:18.843Z,1010.9
2023-01-25T21:13:19.176Z,1011
2023-01-25T21:15:18.428Z,1011
2023-01-25T21:17:18.406Z,1010.8
2023-01-25T21:19:18.402Z,1010.8
2023-01-25T21:21:18.377Z,1010.7
2023-01-25T21:23:18.415Z,1010.7
2023-01-25T21:25:18.376Z,1010.6
2023-01-25T21:27:18.447Z,1010.5
2023-01-25T21:29:18.375Z,1010.4
2023-01-25T21:31:18.465Z,1010.5
2023-01-25T21:33:18.374Z,1010.6
2023-01-25T21:35:18.421Z,1010.5
2023-01-25T21:37:18.372Z,1010.5
2023-01-25T21:39:18.352Z,1010.5
2023-01-25T21:41:18.368Z,1010.6
2023-01-25T21:43:18.353Z,1010.6
2023-01-25T21:45:18.340Z,1010.5
2023-01-25T21:47:30.618Z,1010.4
2023-01-25T21:49:18.380Z,1010.3
2023-01-25T21:51:18.350Z,1010.3
2023-01-25T21:53:18.432Z,1010.1
2023-01-25T21:55:18.336Z,1010
2023-01-25T21:57:18.361Z,1010
2023-01-25T21:59:18.275Z,1010.1
2023-01-25T22:01:18.553Z,1009.9
2023-01-25T22:03:18.406Z,1009.8
2023-01-25T22:05:18.327Z,1009.9
2023-01-25T22:07:18.337Z,1009.9
2023-01-25T22:09:18.316Z,1009.9
2023-01-25T22:11:18.334Z,1010.1
2023-01-25T22:13:18.335Z,1010.1
2023-01-25T22:15:18.542Z,1009.9
2023-01-25T22:17:18.374Z,1010
2023-01-25T22:19:18.340Z,1009.9
2023-01-25T22:21:18.300Z,1009.8
2023-01-25T22:23:18.293Z,1009.9
2023-01-25T22:25:18.358Z,1009.6
2023-01-25T22:27:18.332Z,1009.5
2023-01-25T22:29:18.321Z,1009.9
2023-01-25T22:31:18.424Z,1010
2023-01-25T22:33:18.347Z,1010
2023-01-25T22:35:18.389Z,1009.8
2023-01-25T22:37:18.348Z,1009.9
2023-01-25T22:39:18.335Z,1009.8
2023-01-25T22:41:18.303Z,1009.5
2023-01-25T22:43:18.309Z,1009.5
2023-01-25T22:45:18.284Z,1009.6
2023-01-25T22:47:18.262Z,1009.6
2023-01-25T22:49:18.282Z,1009.8
2023-01-25T22:51:18.289Z,1009.7
2023-01-25T22:53:18.259Z,1009.6
2023-01-25T22:55:18.305Z,1009.6
2023-01-25T22:57:18.300Z,1009.8
2023-01-25T22:59:18.336Z,1009.9
2023-01-25T23:01:18.259Z,1009.9
2023-01-25T23:03:18.270Z,1010.1
2023-01-25T23:05:18.329Z,1010.1
2023-01-25T23:07:18.254Z,1010.1
2023-01-25T23:09:18.401Z,1010.3
2023-01-25T23:11:18.294Z,1010.2
2023-01-25T23:13:18.231Z,1010.3
2023-01-25T23:15:18.266Z,1010.1
2023-01-25T23:17:18.236Z,1010
2023-01-25T23:19:18.261Z,1010.1
2023-01-25T23:21:18.277Z,1010
2023-01-25T23:23:18.261Z,1009.8
2023-01-25T23:25:18.320Z,1009.4
2023-01-25T23:27:18.251Z,1010
2023-01-25T23:29:18.210Z,1009.9
2023-01-25T23:31:18.411Z,1010
2023-01-25T23:33:18.235Z,1009.8
2023-01-25T23:35:18.229Z,1009.7
2023-01-25T23:37:18.234Z,1009.7
2023-01-25T23:39:18.336Z,1009.7
2023-01-25T23:41:18.295Z,1009.6
2023-01-25T23:43:18.233Z,1009.7
2023-01-25T23:45:18.220Z,1009.7
2023-01-25T23:47:18.234Z,1009.5
2023-01-25T23:49:18.230Z,1009.4
2023-01-25T23:51:18.233Z,1009.4
2023-01-25T23:53:18.185Z,1009.4
2023-01-25T23:55:18.224Z,1009.7
2023-01-25T23:57:18.193Z,1009.6
2023-01-25T23:59:18.185Z,1009.3
